Time;durP1;ratioP1;P1;durP2;ratioP2;P2;SDS_P1;SDS_P2;PMS_P1;PMS_P2;Temp;Humidity;BMP_temperature;BMP_pressure;BME280_temperature;BME280_humidity;BME280_pressure;Samples;Min_cycle;Max_cycle;Signal;HPM_P1;HPM_P2
2021/01/30 00:00:25;;;;;;;3.10;2.27;;;6.70;99.90;;;;;;468592;253;28631;-71
2021/01/30 00:02:27;;;;;;;2.30;2.10;;;6.70;99.90;;;;;;468647;253;29007;-73
2021/01/30 00:04:28;;;;;;;2.80;1.83;;;6.70;99.90;;;;;;468648;253;28389;-71
2021/01/30 00:06:29;;;;;;;3.90;2.07;;;6.70;99.90;;;;;;468644;253;28072;-72
2021/01/30 00:08:30;;;;;;;7.20;2.30;;;6.60;99.90;;;;;;468611;253;29447;-73
2021/01/30 00:10:32;;;;;;;4.12;1.90;;;6.50;99.90;;;;;;468579;253;28559;-71
2021/01/30 00:12:33;;;;;;;3.30;1.60;;;6.40;99.90;;;;;;468662;253;27617;-73
2021/01/30 00:14:34;;;;;;;3.50;1.60;;;6.40;99.90;;;;;;468658;253;27814;-71
2021/01/30 00:16:35;;;;;;;5.40;2.10;;;6.40;99.90;;;;;;468478;253;29050;-72
2021/01/30 00:18:37;;;;;;;4.25;2.00;;;6.50;99.90;;;;;;468615;253;28959;-73
2021/01/30 00:20:38;;;;;;;5.80;2.17;;;6.50;99.90;;;;;;468579;253;27703;-71
2021/01/30 00:22:39;;;;;;;3.73;2.27;;;6.50;99.90;;;;;;468624;253;27579;-71
2021/01/30 00:24:43;;;;;;;4.23;2.13;;;6.50;99.90;;;;;;468644;253;29009;-72
2021/01/30 00:26:42;;;;;;;2.30;1.93;;;6.40;99.90;;;;;;468472;253;28136;-72
2021/01/30 00:28:43;;;;;;;5.23;2.20;;;6.50;99.90;;;;;;468658;253;29422;-71
2021/01/30 00:30:44;;;;;;;3.10;1.73;;;6.50;99.90;;;;;;468607;253;29230;-71
2021/01/30 00:32:45;;;;;;;5.05;2.22;;;6.50;99.90;;;;;;468657;253;29488;-71
2021/01/30 00:34:47;;;;;;;4.20;1.70;;;6.50;99.90;;;;;;468661;249;27574;-72
2021/01/30 00:36:48;;;;;;;6.03;2.30;;;6.50;99.90;;;;;;468681;253;27712;-72
2021/01/30 00:38:49;;;;;;;11.50;2.30;;;6.50;99.90;;;;;;468657;253;28957;-71
2021/01/30 00:40:50;;;;;;;4.57;2.10;;;6.50;99.90;;;;;;468618;253;28544;-71
2021/01/30 00:42:52;;;;;;;6.50;2.37;;;6.60;99.90;;;;;;468703;253;28413;-71
2021/01/30 00:44:53;;;;;;;10.43;2.67;;;6.60;99.90;;;;;;468644;253;27584;-72
2021/01/30 00:46:54;;;;;;;5.00;2.00;;;6.70;99.90;;;;;;468638;253;28522;-72
2021/01/30 00:48:55;;;;;;;4.00;2.27;;;6.70;99.90;;;;;;468648;253;28541;-72
2021/01/30 00:50:57;;;;;;;6.65;2.15;;;6.70;99.90;;;;;;468562;253;28390;-71
2021/01/30 00:52:58;;;;;;;8.97;2.50;;;6.70;99.90;;;;;;468626;253;27591;-71
2021/01/30 00:54:59;;;;;;;8.57;2.53;;;6.70;99.90;;;;;;468649;253;28150;-71
2021/01/30 00:57:00;;;;;;;6.50;2.27;;;6.70;99.90;;;;;;468640;253;27562;-71
2021/01/30 00:59:02;;;;;;;5.65;2.25;;;6.70;99.90;;;;;;468563;253;27702;-71
2021/01/30 01:01:03;;;;;;;6.83;2.90;;;6.70;99.90;;;;;;468539;253;27578;-71
2021/01/30 01:03:04;;;;;;;4.75;2.17;;;6.70;99.90;;;;;;468642;253;28979;-71
2021/01/30 01:05:05;;;;;;;5.32;2.20;;;6.70;99.90;;;;;;468647;253;27577;-72
2021/01/30 01:07:07;;;;;;;4.80;2.10;;;6.70;99.90;;;;;;468542;249;27537;-71
2021/01/30 01:09:08;;;;;;;7.17;2.10;;;6.70;99.90;;;;;;468687;249;28543;-71
2021/01/30 01:11:09;;;;;;;7.00;2.40;;;6.70;99.90;;;;;;468519;253;28468;-73
2021/01/30 01:13:10;;;;;;;13.70;2.83;;;6.70;99.90;;;;;;468632;252;28459;-71
2021/01/30 01:15:12;;;;;;;5.77;2.23;;;6.70;99.90;;;;;;468594;249;28418;-69
2021/01/30 01:17:13;;;;;;;9.23;2.73;;;6.80;99.90;;;;;;468730;253;28408;-69
2021/01/30 01:19:14;;;;;;;7.10;2.13;;;6.70;99.90;;;;;;468832;253;28272;-71
2021/01/30 01:21:15;;;;;;;4.00;2.20;;;6.70;99.90;;;;;;468790;252;27919;-74
2021/01/30 01:23:17;;;;;;;6.83;2.17;;;6.80;99.90;;;;;;468846;252;27998;-71
2021/01/30 01:25:18;;;;;;;4.40;1.95;;;6.70;99.90;;;;;;468836;252;28912;-71
2021/01/30 01:27:19;;;;;;;5.82;2.40;;;6.70;99.90;;;;;;468823;253;27618;-71
2021/01/30 01:29:20;;;;;;;4.30;2.07;;;6.70;99.90;;;;;;468949;249;27666;-71
2021/01/30 01:31:22;;;;;;;1.87;1.63;;;6.70;99.90;;;;;;468555;252;27906;-73
2021/01/30 01:33:23;;;;;;;3.47;2.00;;;6.70;99.90;;;;;;468746;252;28181;-71
2021/01/30 01:35:24;;;;;;;5.83;2.10;;;6.70;99.90;;;;;;468721;253;28734;-71
2021/01/30 01:37:25;;;;;;;4.97;2.53;;;6.70;99.90;;;;;;468682;252;28324;-72
2021/01/30 01:39:27;;;;;;;7.03;1.90;;;6.70;99.90;;;;;;468523;254;28499;-71
2021/01/30 01:41:28;;;;;;;5.70;2.33;;;6.70;99.90;;;;;;468514;254;29145;-73
2021/01/30 01:43:29;;;;;;;6.37;2.27;;;6.70;99.90;;;;;;468527;250;27886;-71
2021/01/30 01:45:30;;;;;;;9.13;2.37;;;6.70;99.90;;;;;;468711;253;28588;-72
2021/01/30 01:47:33;;;;;;;8.53;2.23;;;6.80;99.90;;;;;;468700;252;27905;-73
2021/01/30 01:49:33;;;;;;;5.40;2.07;;;6.80;99.90;;;;;;468633;253;28281;-71
2021/01/30 01:51:34;;;;;;;4.90;2.50;;;6.80;99.90;;;;;;468519;249;28361;-71
2021/01/30 01:53:35;;;;;;;6.10;2.37;;;6.70;99.90;;;;;;468596;252;28182;-71
2021/01/30 01:55:37;;;;;;;6.67;2.50;;;6.70;99.90;;;;;;468602;253;28045;-73
2021/01/30 01:57:38;;;;;;;4.07;2.60;;;6.70;99.90;;;;;;468706;252;28119;-73
2021/01/30 01:59:39;;;;;;;7.13;2.70;;;6.70;99.90;;;;;;468679;252;28142;-72
2021/01/30 02:01:40;;;;;;;7.33;2.10;;;6.70;99.90;;;;;;468667;253;28187;-72
2021/01/30 02:03:42;;;;;;;7.60;2.30;;;6.70;99.90;;;;;;468517;252;28154;-71
2021/01/30 02:05:43;;;;;;;4.73;2.00;;;6.70;99.90;;;;;;468529;254;28140;-73
2021/01/30 02:07:44;;;;;;;5.80;2.27;;;6.70;99.90;;;;;;468490;254;28210;-71
2021/01/30 02:09:45;;;;;;;5.57;1.87;;;6.60;99.90;;;;;;468919;253;27920;-72
2021/01/30 02:11:47;;;;;;;3.33;2.00;;;6.60;99.90;;;;;;468879;249;28013;-72
2021/01/30 02:13:48;;;;;;;8.07;2.30;;;6.60;99.90;;;;;;468974;253;28589;-71
2021/01/30 02:15:49;;;;;;;4.80;2.00;;;6.70;99.90;;;;;;468996;252;28413;-71
2021/01/30 02:17:50;;;;;;;5.93;1.97;;;6.70;99.90;;;;;;468725;252;28486;-71
2021/01/30 02:19:52;;;;;;;4.30;2.37;;;6.70;99.90;;;;;;468671;252;28543;-71
2021/01/30 02:21:53;;;;;;;5.83;1.90;;;6.70;99.90;;;;;;468473;254;28610;-71
2021/01/30 02:23:54;;;;;;;11.00;2.43;;;6.70;99.90;;;;;;468550;250;28624;-72
2021/01/30 02:25:56;;;;;;;7.57;2.27;;;6.70;99.90;;;;;;468570;254;27990;-71
2021/01/30 02:27:57;;;;;;;3.70;2.20;;;6.60;99.90;;;;;;468524;253;27725;-71
2021/01/30 02:29:58;;;;;;;5.53;2.30;;;6.60;99.90;;;;;;468701;253;28042;-72
2021/01/30 02:31:59;;;;;;;5.63;1.90;;;6.60;99.90;;;;;;468698;252;28713;-72
2021/01/30 02:34:00;;;;;;;4.20;2.08;;;6.60;99.90;;;;;;468735;252;27797;-74
2021/01/30 02:36:02;;;;;;;7.45;2.53;;;6.60;99.90;;;;;;468963;249;27550;-71
2021/01/30 02:38:03;;;;;;;5.30;1.97;;;6.60;99.90;;;;;;468719;252;27550;-71
2021/01/30 02:40:04;;;;;;;8.13;2.33;;;6.60;99.90;;;;;;468670;253;28915;-71
2021/01/30 02:42:05;;;;;;;4.67;2.20;;;6.60;99.90;;;;;;468888;253;28025;-71
2021/01/30 02:44:07;;;;;;;6.97;2.53;;;6.60;99.90;;;;;;468866;252;28726;-72
2021/01/30 02:46:08;;;;;;;8.33;2.47;;;6.60;99.90;;;;;;468753;252;28663;-70
2021/01/30 02:48:09;;;;;;;9.07;2.30;;;6.60;99.90;;;;;;468663;254;27785;-72
2021/01/30 02:50:10;;;;;;;7.40;2.80;;;6.60;99.90;;;;;;468659;253;28047;-71
2021/01/30 02:52:12;;;;;;;7.40;2.70;;;6.60;99.90;;;;;;468805;252;28007;-71
2021/01/30 02:54:13;;;;;;;5.93;2.53;;;6.60;99.90;;;;;;468787;252;27824;-73
2021/01/30 02:56:14;;;;;;;8.50;2.60;;;6.60;99.90;;;;;;468693;249;27527;-71
2021/01/30 02:58:15;;;;;;;6.23;2.87;;;6.60;99.90;;;;;;468551;252;27686;-71
2021/01/30 03:00:17;;;;;;;11.70;2.17;;;6.60;99.90;;;;;;468526;253;29295;-74
2021/01/30 03:02:18;;;;;;;6.17;2.90;;;6.60;99.90;;;;;;468733;252;28129;-72
2021/01/30 03:04:19;;;;;;;8.03;2.60;;;6.60;99.90;;;;;;468751;252;28153;-72
2021/01/30 03:06:21;;;;;;;6.97;2.50;;;6.50;99.90;;;;;;468553;253;28006;-70
2021/01/30 03:08:22;;;;;;;8.23;2.50;;;6.60;99.90;;;;;;468513;254;28216;-71
2021/01/30 03:10:23;;;;;;;14.73;3.17;;;6.60;99.90;;;;;;468446;254;28019;-71
2021/01/30 03:12:24;;;;;;;11.43;3.33;;;6.70;99.90;;;;;;468528;253;28446;-71
2021/01/30 03:14:25;;;;;;;9.53;2.73;;;6.70;99.90;;;;;;468729;252;28626;-73
2021/01/30 03:16:27;;;;;;;17.08;4.05;;;6.60;99.90;;;;;;468699;252;29370;-70
2021/01/30 03:18:28;;;;;;;11.60;2.70;;;6.60;99.90;;;;;;468684;249;27542;-71
2021/01/30 03:20:29;;;;;;;10.65;3.25;;;6.60;99.90;;;;;;468504;253;28999;-72
2021/01/30 03:22:30;;;;;;;9.40;3.13;;;6.60;99.90;;;;;;468571;253;27540;-71
2021/01/30 03:24:32;;;;;;;6.73;3.00;;;6.60;99.90;;;;;;468522;254;28108;-73
2021/01/30 03:26:33;;;;;;;5.40;2.30;;;6.60;99.90;;;;;;468508;254;28017;-73
2021/01/30 03:28:34;;;;;;;11.80;2.30;;;6.60;99.90;;;;;;468507;254;27570;-71
2021/01/30 03:30:35;;;;;;;6.50;2.33;;;6.70;99.90;;;;;;468464;254;29000;-71
2021/01/30 03:32:37;;;;;;;11.50;2.70;;;6.60;99.90;;;;;;468614;253;28156;-72
2021/01/30 03:34:38;;;;;;;8.23;2.45;;;6.60;99.90;;;;;;468694;252;28493;-71
2021/01/30 03:36:39;;;;;;;10.83;2.73;;;6.60;99.90;;;;;;468704;252;28054;-73
2021/01/30 03:38:40;;;;;;;8.23;2.22;;;6.60;99.90;;;;;;468751;252;27936;-72
2021/01/30 03:40:43;;;;;;;7.43;3.33;;;6.60;99.90;;;;;;468667;252;27561;-71
2021/01/30 03:42:43;;;;;;;4.37;1.60;;;6.50;99.90;;;;;;468607;253;27563;-72
2021/01/30 03:44:44;;;;;;;6.77;1.80;;;6.60;99.90;;;;;;468581;249;28457;-71
2021/01/30 03:46:45;;;;;;;6.70;2.80;;;6.60;99.90;;;;;;468505;254;28918;-71
2021/01/30 03:48:47;;;;;;;6.60;2.78;;;6.60;99.90;;;;;;468636;253;28994;-72
2021/01/30 03:50:48;;;;;;;10.60;3.00;;;6.60;99.90;;;;;;468527;252;28023;-71
2021/01/30 03:52:49;;;;;;;4.00;2.73;;;6.60;99.90;;;;;;468477;249;28995;-73
2021/01/30 03:54:50;;;;;;;3.37;2.03;;;6.60;99.90;;;;;;468668;253;28538;-71
2021/01/30 03:56:52;;;;;;;5.95;2.20;;;6.50;99.90;;;;;;468516;254;27628;-72
2021/01/30 03:58:53;;;;;;;2.97;1.98;;;6.50;99.90;;;;;;468606;253;27495;-71
2021/01/30 04:00:54;;;;;;;10.47;2.60;;;6.50;99.90;;;;;;468726;252;27562;-71
2021/01/30 04:02:55;;;;;;;15.10;2.90;;;6.60;99.90;;;;;;468815;252;28943;-74
2021/01/30 04:04:57;;;;;;;14.68;2.85;;;6.50;99.90;;;;;;468730;249;28877;-71
2021/01/30 04:06:58;;;;;;;9.47;2.50;;;6.50;99.90;;;;;;468743;252;28011;-71
2021/01/30 04:08:59;;;;;;;6.77;2.80;;;6.50;99.90;;;;;;468661;254;28887;-70
2021/01/30 04:11:01;;;;;;;14.52;3.12;;;6.50;99.90;;;;;;468727;253;28074;-71
2021/01/30 04:13:02;;;;;;;9.48;3.05;;;6.50;99.90;;;;;;468869;253;27658;-74
2021/01/30 04:15:03;;;;;;;14.02;3.20;;;6.50;99.90;;;;;;468894;252;27610;-71
2021/01/30 04:17:04;;;;;;;15.67;3.60;;;6.50;99.90;;;;;;468754;253;27552;-71
2021/01/30 04:19:06;;;;;;;15.15;3.65;;;6.50;99.90;;;;;;468641;254;28603;-71
2021/01/30 04:21:07;;;;;;;14.03;3.10;;;6.50;99.90;;;;;;468626;254;27514;-71
2021/01/30 04:23:08;;;;;;;10.03;2.50;;;6.50;99.90;;;;;;468640;254;28431;-70
2021/01/30 04:25:09;;;;;;;15.17;3.97;;;6.50;99.90;;;;;;468685;253;28296;-69
2021/01/30 04:27:11;;;;;;;23.25;3.47;;;6.50;99.90;;;;;;468750;252;28602;-69
2021/01/30 04:29:12;;;;;;;17.60;3.95;;;6.50;99.90;;;;;;468524;254;27636;-70
2021/01/30 04:31:13;;;;;;;14.38;3.37;;;6.50;99.90;;;;;;468594;253;27665;-69
2021/01/30 04:33:14;;;;;;;21.00;3.50;;;6.50;99.90;;;;;;468748;252;27941;-72
2021/01/30 04:35:16;;;;;;;21.17;4.17;;;6.40;99.90;;;;;;468701;252;28234;-71
2021/01/30 04:37:17;;;;;;;17.87;4.37;;;6.40;99.90;;;;;;468733;252;28939;-69
2021/01/30 04:39:18;;;;;;;12.48;3.30;;;6.50;99.90;;;;;;468679;252;29569;-70
2021/01/30 04:41:19;;;;;;;26.08;4.32;;;6.40;99.90;;;;;;468637;252;28174;-69
2021/01/30 04:43:21;;;;;;;21.08;3.55;;;6.40;99.90;;;;;;468682;249;27548;-69
2021/01/30 04:45:22;;;;;;;15.18;4.05;;;6.40;99.90;;;;;;468579;253;27550;-70
2021/01/30 04:47:23;;;;;;;13.60;3.00;;;6.40;99.90;;;;;;468546;253;27554;-70
2021/01/30 04:49:24;;;;;;;21.13;3.93;;;6.40;99.90;;;;;;468573;253;29128;-69
2021/01/30 04:51:26;;;;;;;16.73;3.23;;;6.40;99.90;;;;;;468622;252;29352;-69
2021/01/30 04:53:27;;;;;;;11.10;3.90;;;6.40;99.90;;;;;;468704;253;28924;-73
2021/01/30 04:55:28;;;;;;;14.32;3.20;;;6.40;99.90;;;;;;468697;252;29234;-73
2021/01/30 04:57:29;;;;;;;14.23;3.40;;;6.40;99.90;;;;;;468681;252;27565;-73
2021/01/30 04:59:31;;;;;;;16.98;3.80;;;6.40;99.90;;;;;;468667;252;27558;-70
2021/01/30 05:01:32;;;;;;;18.53;4.17;;;6.40;99.90;;;;;;468648;252;27565;-71
2021/01/30 05:03:33;;;;;;;14.53;3.20;;;6.50;99.90;;;;;;468742;252;27675;-71
2021/01/30 05:05:34;;;;;;;14.90;3.30;;;6.50;99.90;;;;;;468695;252;28938;-73
2021/01/30 05:07:36;;;;;;;11.57;2.67;;;6.40;99.90;;;;;;468705;252;28081;-72
2021/01/30 05:09:37;;;;;;;14.82;3.67;;;6.40;99.90;;;;;;468692;253;29238;-70
2021/01/30 05:11:38;;;;;;;19.42;3.78;;;6.40;99.90;;;;;;468659;253;27683;-71
2021/01/30 05:13:39;;;;;;;13.62;3.85;;;6.40;99.90;;;;;;468741;252;27618;-71
2021/01/30 05:15:41;;;;;;;22.15;4.03;;;6.40;99.90;;;;;;468724;252;27568;-72
2021/01/30 05:17:42;;;;;;;13.73;4.20;;;6.40;99.90;;;;;;468720;252;27636;-72
2021/01/30 05:19:43;;;;;;;19.33;3.55;;;6.50;99.90;;;;;;468701;252;28780;-72
2021/01/30 05:21:45;;;;;;;19.67;4.07;;;6.40;99.90;;;;;;468706;253;28047;-73
2021/01/30 05:23:46;;;;;;;13.73;3.30;;;6.40;99.90;;;;;;468740;253;27512;-71
2021/01/30 05:25:47;;;;;;;16.17;3.97;;;6.30;99.90;;;;;;468698;253;29005;-71
2021/01/30 05:27:48;;;;;;;10.70;3.37;;;6.40;99.90;;;;;;468706;253;27924;-73
2021/01/30 05:29:50;;;;;;;15.10;3.30;;;6.40;99.90;;;;;;468860;252;27852;-71
2021/01/30 05:31:51;;;;;;;18.83;3.73;;;6.40;99.90;;;;;;468857;252;27581;-73
2021/01/30 05:33:52;;;;;;;21.90;4.10;;;6.40;99.90;;;;;;468887;252;30282;-71
2021/01/30 05:35:53;;;;;;;9.45;3.33;;;6.40;99.90;;;;;;468905;252;29185;-71
2021/01/30 05:37:55;;;;;;;24.43;4.33;;;6.40;99.90;;;;;;468880;253;28449;-71
2021/01/30 05:39:56;;;;;;;22.03;3.77;;;6.40;99.90;;;;;;468900;252;28013;-71
2021/01/30 05:41:57;;;;;;;20.25;4.37;;;6.40;99.90;;;;;;468816;252;28912;-72
2021/01/30 05:43:58;;;;;;;15.90;4.47;;;6.30;99.90;;;;;;468880;252;27501;-71
2021/01/30 05:46:00;;;;;;;18.67;4.22;;;6.30;99.90;;;;;;468823;252;27937;-70
2021/01/30 05:48:01;;;;;;;14.10;3.30;;;6.30;99.90;;;;;;468808;253;27671;-73
2021/01/30 05:50:02;;;;;;;19.60;3.90;;;6.30;99.90;;;;;;468554;252;28943;-72
2021/01/30 05:52:03;;;;;;;20.80;4.00;;;6.30;99.90;;;;;;468782;252;29365;-71
2021/01/30 05:54:05;;;;;;;17.52;3.72;;;6.30;99.90;;;;;;468750;252;29324;-71
2021/01/30 05:56:06;;;;;;;18.83;3.87;;;6.30;99.90;;;;;;468703;253;27578;-71
2021/01/30 05:58:07;;;;;;;24.85;5.00;;;6.40;99.90;;;;;;468679;253;28274;-72
2021/01/30 06:00:08;;;;;;;14.65;3.95;;;6.30;99.90;;;;;;468629;252;27602;-70
2021/01/30 06:02:10;;;;;;;25.33;3.87;;;6.40;99.90;;;;;;468619;252;27664;-72
2021/01/30 06:04:11;;;;;;;15.43;4.20;;;6.40;99.90;;;;;;468637;252;28288;-71
2021/01/30 06:06:12;;;;;;;19.83;3.90;;;6.40;99.90;;;;;;468623;252;28024;-71
2021/01/30 06:08:13;;;;;;;18.65;4.00;;;6.40;99.90;;;;;;468619;252;27561;-72
2021/01/30 06:10:15;;;;;;;35.17;4.43;;;6.40;99.90;;;;;;468589;252;27570;-71
2021/01/30 06:12:16;;;;;;;19.80;4.27;;;6.40;99.90;;;;;;468657;252;28020;-72
2021/01/30 06:14:17;;;;;;;16.05;4.78;;;6.40;99.90;;;;;;468658;253;28514;-73
2021/01/30 06:16:18;;;;;;;19.43;3.60;;;6.50;99.90;;;;;;468635;252;27686;-70
2021/01/30 06:18:20;;;;;;;16.47;4.40;;;6.50;99.90;;;;;;468636;253;29108;-72
2021/01/30 06:20:21;;;;;;;22.80;4.70;;;6.40;99.90;;;;;;468671;252;28095;-71
2021/01/30 06:22:22;;;;;;;26.67;4.72;;;6.50;99.90;;;;;;468728;252;29483;-73
2021/01/30 06:24:24;;;;;;;16.58;4.25;;;6.40;99.90;;;;;;468706;252;27566;-71
2021/01/30 06:26:25;;;;;;;32.10;4.40;;;6.40;99.90;;;;;;468684;252;27568;-71
2021/01/30 06:28:26;;;;;;;16.40;4.40;;;6.40;99.90;;;;;;468692;252;28003;-71
2021/01/30 06:30:27;;;;;;;26.10;4.70;;;6.30;99.90;;;;;;468716;253;27901;-72
2021/01/30 06:32:29;;;;;;;24.83;4.47;;;6.30;99.90;;;;;;468723;252;28919;-72
2021/01/30 06:34:30;;;;;;;24.83;5.25;;;6.40;99.90;;;;;;468722;252;27896;-71
2021/01/30 06:36:31;;;;;;;25.70;4.53;;;6.40;99.90;;;;;;468718;253;28045;-72
2021/01/30 06:38:32;;;;;;;26.00;5.15;;;6.40;99.90;;;;;;468717;253;28462;-71
2021/01/30 06:40:34;;;;;;;18.77;4.30;;;6.40;99.90;;;;;;468723;247;27552;-73
2021/01/30 06:42:35;;;;;;;25.23;4.82;;;6.40;99.90;;;;;;468734;253;29032;-73
2021/01/30 06:44:36;;;;;;;16.80;4.63;;;6.40;99.90;;;;;;468708;252;27552;-71
2021/01/30 06:46:37;;;;;;;14.30;4.57;;;6.40;99.90;;;;;;468725;252;27661;-72
2021/01/30 06:48:39;;;;;;;14.40;5.03;;;6.40;99.90;;;;;;468709;252;27820;-71
2021/01/30 06:50:40;;;;;;;22.40;4.47;;;6.50;99.90;;;;;;468688;252;28021;-72
2021/01/30 06:52:41;;;;;;;21.77;5.10;;;6.50;99.90;;;;;;468704;252;28540;-72
2021/01/30 06:54:42;;;;;;;19.43;4.43;;;6.50;99.90;;;;;;468683;252;28036;-71
2021/01/30 06:56:44;;;;;;;25.15;4.87;;;6.50;99.90;;;;;;468720;252;29398;-71
2021/01/30 06:58:45;;;;;;;15.50;4.60;;;6.50;99.90;;;;;;468709;253;27677;-71
2021/01/30 07:00:46;;;;;;;18.70;4.73;;;6.50;99.90;;;;;;468690;253;27934;-72
2021/01/30 07:02:47;;;;;;;22.13;4.77;;;6.50;99.90;;;;;;468719;253;28137;-71
2021/01/30 07:04:49;;;;;;;15.77;4.20;;;6.50;99.90;;;;;;468730;252;28630;-71
2021/01/30 07:06:50;;;;;;;32.13;5.50;;;6.50;99.90;;;;;;468783;253;27687;-72
2021/01/30 07:08:51;;;;;;;23.70;4.57;;;6.50;99.90;;;;;;468768;252;28124;-71
2021/01/30 07:10:52;;;;;;;20.50;4.73;;;6.50;99.90;;;;;;468739;252;28959;-71
2021/01/30 07:12:54;;;;;;;25.10;4.90;;;6.50;99.90;;;;;;468810;252;28731;-71
2021/01/30 07:14:55;;;;;;;27.37;5.25;;;6.50;99.90;;;;;;468793;253;27632;-70
2021/01/30 07:16:56;;;;;;;17.67;4.10;;;6.60;99.90;;;;;;468810;252;27649;-71
2021/01/30 07:18:57;;;;;;;32.43;5.37;;;6.60;99.90;;;;;;468844;253;27530;-71
2021/01/30 07:20:59;;;;;;;21.80;4.77;;;6.60;99.90;;;;;;468773;252;28145;-71
2021/01/30 07:23:00;;;;;;;32.27;5.40;;;6.60;99.90;;;;;;468713;252;29005;-71
2021/01/30 07:25:01;;;;;;;28.57;6.00;;;6.60;99.90;;;;;;468672;253;28516;-71
2021/01/30 07:27:02;;;;;;;33.05;5.10;;;6.60;99.90;;;;;;468705;252;29307;-71
2021/01/30 07:29:04;;;;;;;20.20;4.55;;;6.60;99.90;;;;;;468742;252;27977;-71
2021/01/30 07:31:05;;;;;;;21.27;4.75;;;6.60;99.90;;;;;;468664;252;27648;-71
2021/01/30 07:33:06;;;;;;;28.00;6.97;;;6.70;99.90;;;;;;468678;253;27927;-72
2021/01/30 07:35:07;;;;;;;18.60;4.50;;;6.70;99.90;;;;;;468703;252;27562;-71
2021/01/30 07:37:09;;;;;;;15.00;4.40;;;6.60;99.90;;;;;;468738;252;28083;-73
2021/01/30 07:39:10;;;;;;;18.70;5.60;;;6.60;99.90;;;;;;468747;252;28472;-71
2021/01/30 07:41:11;;;;;;;29.00;5.83;;;6.60;99.90;;;;;;468676;252;29717;-71
2021/01/30 07:43:12;;;;;;;32.93;5.20;;;6.70;99.90;;;;;;468714;252;27815;-72
2021/01/30 07:45:14;;;;;;;29.93;4.93;;;6.70;99.90;;;;;;468738;253;27909;-71
2021/01/30 07:47:15;;;;;;;27.90;4.67;;;6.70;99.90;;;;;;468660;252;27903;-73
2021/01/30 07:49:16;;;;;;;26.83;6.20;;;6.70;99.90;;;;;;468659;253;28918;-71
2021/01/30 07:51:17;;;;;;;17.33;4.30;;;6.70;99.90;;;;;;468610;253;28165;-71
2021/01/30 07:53:19;;;;;;;21.53;5.50;;;6.70;99.90;;;;;;468640;252;27670;-71
2021/01/30 07:55:20;;;;;;;27.07;6.17;;;6.70;99.90;;;;;;468673;252;28067;-71
2021/01/30 07:57:21;;;;;;;23.90;5.40;;;6.70;99.90;;;;;;468695;253;28041;-71
2021/01/30 07:59:22;;;;;;;18.37;4.83;;;6.80;99.90;;;;;;468690;252;28134;-72
2021/01/30 08:01:24;;;;;;;27.00;5.90;;;6.80;99.90;;;;;;468667;252;28762;-72
2021/01/30 08:03:25;;;;;;;28.40;6.07;;;6.80;99.90;;;;;;468690;252;28653;-71
2021/01/30 08:05:26;;;;;;;29.97;6.33;;;6.80;99.90;;;;;;468695;252;28164;-71
2021/01/30 08:07:28;;;;;;;27.17;5.43;;;6.80;99.90;;;;;;468704;252;27776;-71
2021/01/30 08:09:29;;;;;;;25.23;6.00;;;6.80;99.90;;;;;;468704;252;28232;-72
2021/01/30 08:11:30;;;;;;;28.63;6.23;;;6.80;99.90;;;;;;468646;252;28482;-72
2021/01/30 08:13:31;;;;;;;22.53;5.50;;;6.90;99.90;;;;;;468705;252;28032;-71
2021/01/30 08:15:33;;;;;;;19.67;5.10;;;6.90;99.90;;;;;;468466;252;28097;-74
2021/01/30 08:17:34;;;;;;;25.53;5.83;;;6.90;99.90;;;;;;468765;253;27781;-71
2021/01/30 08:19:35;;;;;;;19.70;5.90;;;6.90;99.90;;;;;;468913;252;28727;-72
2021/01/30 08:21:36;;;;;;;23.93;5.43;;;6.90;99.90;;;;;;469510;248;27995;-71
2021/01/30 08:23:38;;;;;;;23.08;5.35;;;6.90;99.90;;;;;;468828;252;28037;-71
2021/01/30 08:25:39;;;;;;;22.43;5.43;;;6.90;99.90;;;;;;468833;249;28125;-73
2021/01/30 08:27:40;;;;;;;22.77;5.60;;;6.80;99.90;;;;;;468802;252;28281;-71
2021/01/30 08:29:41;;;;;;;32.77;5.93;;;6.80;99.90;;;;;;468783;253;27644;-70
2021/01/30 08:31:43;;;;;;;24.83;5.50;;;6.90;99.90;;;;;;468706;252;27901;-70
2021/01/30 08:33:44;;;;;;;32.00;5.45;;;6.90;99.90;;;;;;468733;252;28144;-71
2021/01/30 08:35:45;;;;;;;28.70;5.57;;;6.90;99.90;;;;;;483502;236;27423;-72
2021/01/30 08:37:46;;;;;;;25.30;5.17;;;6.90;99.90;;;;;;488174;243;27730;-71
2021/01/30 08:39:48;;;;;;;15.70;4.53;;;7.00;99.90;;;;;;488194;243;27478;-72
2021/01/30 08:41:49;;;;;;;21.17;5.33;;;7.00;99.90;;;;;;488106;243;28592;-71
2021/01/30 08:43:50;;;;;;;18.73;4.90;;;6.90;99.90;;;;;;488155;243;28477;-70
2021/01/30 08:45:51;;;;;;;31.47;5.30;;;6.90;99.90;;;;;;488154;243;29232;-72
2021/01/30 08:47:53;;;;;;;26.60;4.97;;;7.00;99.90;;;;;;488032;240;27644;-71
2021/01/30 08:49:54;;;;;;;19.97;4.60;;;7.00;99.90;;;;;;488196;243;27754;-71
2021/01/30 08:51:55;;;;;;;21.37;4.40;;;7.10;99.90;;;;;;488108;243;27766;-73
2021/01/30 08:53:56;;;;;;;17.03;4.80;;;7.10;99.90;;;;;;488178;243;27923;-71
2021/01/30 08:55:58;;;;;;;24.00;5.70;;;7.20;99.90;;;;;;488160;243;27766;-71
2021/01/30 08:57:59;;;;;;;20.80;5.17;;;7.20;99.90;;;;;;488241;243;27384;-71
2021/01/30 09:00:00;;;;;;;24.97;4.70;;;7.30;99.90;;;;;;483749;242;28366;-73
2021/01/30 09:02:01;;;;;;;23.60;4.93;;;7.30;99.90;;;;;;481981;245;28048;-72
2021/01/30 09:04:03;;;;;;;21.17;5.10;;;7.20;99.90;;;;;;482061;245;28398;-72
2021/01/30 09:06:04;;;;;;;22.77;5.00;;;7.20;99.90;;;;;;482139;246;28476;-72
2021/01/30 09:08:05;;;;;;;22.23;5.97;;;7.20;99.90;;;;;;482065;245;28035;-72
2021/01/30 09:10:06;;;;;;;35.10;7.97;;;7.30;99.90;;;;;;481948;245;28187;-71
2021/01/30 09:12:08;;;;;;;31.17;5.23;;;7.30;99.90;;;;;;482037;245;27891;-72
2021/01/30 09:14:09;;;;;;;20.97;4.00;;;7.40;99.90;;;;;;482030;245;27880;-74
2021/01/30 09:16:10;;;;;;;18.40;4.50;;;7.40;99.90;;;;;;481901;245;27516;-72
2021/01/30 09:18:11;;;;;;;19.93;5.33;;;7.50;99.90;;;;;;482019;245;28418;-73
2021/01/30 09:20:13;;;;;;;19.37;4.60;;;7.50;99.90;;;;;;481987;245;27914;-72
2021/01/30 09:22:14;;;;;;;15.60;3.90;;;7.50;99.90;;;;;;482100;245;28003;-73
2021/01/30 09:24:15;;;;;;;16.13;4.30;;;7.50;99.90;;;;;;482051;245;27801;-73
2021/01/30 09:26:16;;;;;;;9.27;3.13;;;7.40;99.90;;;;;;486521;240;27963;-72
2021/01/30 09:28:18;;;;;;;13.23;3.43;;;7.40;99.90;;;;;;488212;243;27895;-73
2021/01/30 09:30:19;;;;;;;11.60;2.90;;;7.40;99.90;;;;;;488142;243;28511;-72
2021/01/30 09:32:20;;;;;;;13.23;2.87;;;7.40;99.90;;;;;;488182;243;28219;-73
2021/01/30 09:34:21;;;;;;;13.87;3.47;;;7.40;99.90;;;;;;488165;243;28289;-74
2021/01/30 09:36:23;;;;;;;8.10;3.00;;;7.50;99.90;;;;;;488074;243;28087;-73
2021/01/30 09:38:24;;;;;;;9.60;3.20;;;7.50;99.90;;;;;;488069;240;27876;-75
2021/01/30 09:40:25;;;;;;;12.80;3.37;;;7.50;99.90;;;;;;488123;240;27900;-73
2021/01/30 09:42:26;;;;;;;6.70;2.70;;;7.50;99.90;;;;;;488176;243;27805;-73
2021/01/30 09:44:28;;;;;;;11.13;2.47;;;7.50;99.90;;;;;;488285;243;27722;-73
2021/01/30 09:46:29;;;;;;;13.20;3.27;;;7.60;99.90;;;;;;488251;243;27845;-72
2021/01/30 09:48:30;;;;;;;13.47;3.30;;;7.50;99.90;;;;;;488296;243;27740;-74
2021/01/30 09:50:31;;;;;;;8.80;2.80;;;7.50;99.90;;;;;;488158;243;27847;-71
2021/01/30 09:52:33;;;;;;;13.50;3.40;;;7.50;99.90;;;;;;488222;243;27977;-74
2021/01/30 09:54:34;;;;;;;8.60;2.93;;;7.50;99.90;;;;;;488197;243;27602;-71
2021/01/30 09:56:36;;;;;;;12.87;3.43;;;7.50;99.90;;;;;;488156;240;27667;-72
2021/01/30 09:58:36;;;;;;;17.07;3.70;;;7.50;99.90;;;;;;485200;241;28176;-72
2021/01/30 10:00:38;;;;;;;14.93;3.20;;;7.50;99.90;;;;;;487947;243;28476;-72
2021/01/30 10:02:39;;;;;;;10.00;2.80;;;7.50;99.90;;;;;;488192;243;28258;-75
2021/01/30 10:04:40;;;;;;;13.40;2.73;;;7.50;99.90;;;;;;488170;243;28313;-71
2021/01/30 10:06:41;;;;;;;11.80;2.50;;;7.60;99.90;;;;;;488069;243;28012;-72
2021/01/30 10:08:43;;;;;;;8.37;2.60;;;7.50;99.90;;;;;;488169;243;27906;-72
2021/01/30 10:10:44;;;;;;;7.50;2.97;;;7.50;99.90;;;;;;488076;243;27855;-72
2021/01/30 10:12:45;;;;;;;11.87;3.50;;;7.50;99.90;;;;;;488092;243;27861;-73
2021/01/30 10:14:46;;;;;;;14.30;2.47;;;7.50;99.90;;;;;;488154;243;28442;-73
2021/01/30 10:16:48;;;;;;;8.90;2.60;;;7.50;99.90;;;;;;484859;241;27998;-73
2021/01/30 10:18:49;;;;;;;5.93;2.33;;;7.50;99.90;;;;;;481983;241;27868;-75
2021/01/30 10:20:50;;;;;;;5.57;2.33;;;7.50;99.90;;;;;;483776;241;28045;-73
2021/01/30 10:22:51;;;;;;;7.33;2.30;;;7.50;99.90;;;;;;483002;241;27964;-71
2021/01/30 10:24:53;;;;;;;6.43;2.43;;;7.50;99.90;;;;;;482613;244;28329;-73
2021/01/30 10:26:54;;;;;;;9.73;2.77;;;7.50;99.90;;;;;;482762;245;28338;-72
2021/01/30 10:28:55;;;;;;;9.00;2.30;;;7.50;99.90;;;;;;482772;245;28510;-72
2021/01/30 10:30:56;;;;;;;7.77;2.60;;;7.50;99.90;;;;;;482750;245;29252;-72
2021/01/30 10:32:58;;;;;;;7.20;2.60;;;7.50;99.90;;;;;;482959;240;28478;-72